sensor_id;sensor_type;location;lat;lon;timestamp;pressure;altitude;pressure_sealevel;temperature;humidity
69145;BME280;56251;50.324;17.574;2023-02-17T00:00:21;102416.70;;;4.44;63.68
69145;BME280;56251;50.324;17.574;2023-02-17T00:02:13;102407.34;;;4.45;63.78
69145;BME280;56251;50.324;17.574;2023-02-17T00:03:28;102408.83;;;4.40;63.94
69145;BME280;56251;50.324;17.574;2023-02-17T00:05:24;102406.23;;;4.28;64.19
69145;BME280;56251;50.324;17.574;2023-02-17T00:06:34;102402.16;;;4.12;64.59
69145;BME280;56251;50.324;17.574;2023-02-17T00:08:30;102399.56;;;4.02;64.62
69145;BME280;56251;50.324;17.574;2023-02-17T00:09:40;102400.72;;;4.10;64.24
69145;BME280;56251;50.324;17.574;2023-02-17T00:11:36;102401.10;;;4.26;63.80
69145;BME280;56251;50.324;17.574;2023-02-17T00:12:47;102399.64;;;4.31;63.50
69145;BME280;56251;50.324;17.574;2023-02-17T00:14:42;102395.69;;;4.43;62.87
69145;BME280;56251;50.324;17.574;2023-02-17T00:15:53;102395.95;;;4.52;62.26
69145;BME280;56251;50.324;17.574;2023-02-17T00:17:48;102394.30;;;4.48;61.95
69145;BME280;56251;50.324;17.574;2023-02-17T00:19:00;102397.51;;;4.43;62.05
69145;BME280;56251;50.324;17.574;2023-02-17T00:20:55;102393.69;;;4.46;62.04
69145;BME280;56251;50.324;17.574;2023-02-17T00:22:06;102394.33;;;4.44;62.08
69145;BME280;56251;50.324;17.574;2023-02-17T00:24:01;102393.67;;;4.47;62.14
69145;BME280;56251;50.324;17.574;2023-02-17T00:25:12;102389.91;;;4.44;62.27
69145;BME280;56251;50.324;17.574;2023-02-17T00:27:07;102389.78;;;4.39;62.38
69145;BME280;56251;50.324;17.574;2023-02-17T00:28:18;102390.30;;;4.40;62.28
69145;BME280;56251;50.324;17.574;2023-02-17T00:30:13;102398.54;;;4.35;62.28
69145;BME280;56251;50.324;17.574;2023-02-17T00:31:24;102401.16;;;4.32;62.43
69145;BME280;56251;50.324;17.574;2023-02-17T00:33:19;102404.17;;;4.23;62.84
69145;BME280;56251;50.324;17.574;2023-02-17T00:34:31;102396.61;;;4.20;63.08
69145;BME280;56251;50.324;17.574;2023-02-17T00:36:27;102397.13;;;4.21;63.04
69145;BME280;56251;50.324;17.574;2023-02-17T00:37:37;102395.66;;;4.24;62.96
69145;BME280;56251;50.324;17.574;2023-02-17T00:39:33;102397.23;;;4.20;63.13
69145;BME280;56251;50.324;17.574;2023-02-17T00:40:44;102403.52;;;4.23;63.21
69145;BME280;56251;50.324;17.574;2023-02-17T00:42:40;102409.53;;;4.27;63.17
69145;BME280;56251;50.324;17.574;2023-02-17T00:43:50;102408.18;;;4.32;63.13
69145;BME280;56251;50.324;17.574;2023-02-17T00:45:46;102406.21;;;4.20;63.57
69145;BME280;56251;50.324;17.574;2023-02-17T00:46:56;102409.46;;;4.21;63.64
69145;BME280;56251;50.324;17.574;2023-02-17T00:48:52;102418.82;;;4.29;63.56
69145;BME280;56251;50.324;17.574;2023-02-17T00:50:03;102420.07;;;4.37;63.21
69145;BME280;56251;50.324;17.574;2023-02-17T00:51:59;102420.18;;;4.42;63.06
69145;BME280;56251;50.324;17.574;2023-02-17T00:53:09;102423.27;;;4.41;63.03
69145;BME280;56251;50.324;17.574;2023-02-17T00:55:08;102426.22;;;4.38;63.29
69145;BME280;56251;50.324;17.574;2023-02-17T00:56:15;102426.08;;;4.39;63.29
69145;BME280;56251;50.324;17.574;2023-02-17T00:58:14;102423.55;;;4.50;63.09
69145;BME280;56251;50.324;17.574;2023-02-17T00:59:21;102422.83;;;4.55;62.86
69145;BME280;56251;50.324;17.574;2023-02-17T01:01:21;102417.19;;;4.67;62.33
69145;BME280;56251;50.324;17.574;2023-02-17T01:02:27;102414.13;;;4.72;62.12
69145;BME280;56251;50.324;17.574;2023-02-17T01:04:27;102417.56;;;4.76;62.18
69145;BME280;56251;50.324;17.574;2023-02-17T01:05:33;102416.92;;;4.79;62.24
69145;BME280;56251;50.324;17.574;2023-02-17T01:07:33;102411.41;;;4.87;62.14
69145;BME280;56251;50.324;17.574;2023-02-17T01:08:39;102407.77;;;4.87;62.02
69145;BME280;56251;50.324;17.574;2023-02-17T01:10:42;102403.41;;;4.95;61.84
69145;BME280;56251;50.324;17.574;2023-02-17T01:11:45;102401.87;;;4.95;61.84
69145;BME280;56251;50.324;17.574;2023-02-17T01:13:48;102395.09;;;5.01;61.71
69145;BME280;56251;50.324;17.574;2023-02-17T01:14:52;102396.78;;;5.05;61.21
69145;BME280;56251;50.324;17.574;2023-02-17T01:16:54;102390.70;;;5.11;60.76
69145;BME280;56251;50.324;17.574;2023-02-17T01:17:58;102389.70;;;5.13;60.24
69145;BME280;56251;50.324;17.574;2023-02-17T01:20:00;102380.59;;;5.22;59.69
69145;BME280;56251;50.324;17.574;2023-02-17T01:21:04;102380.45;;;5.23;59.07
69145;BME280;56251;50.324;17.574;2023-02-17T01:23:08;102378.13;;;5.40;59.02
69145;BME280;56251;50.324;17.574;2023-02-17T01:24:11;102379.03;;;5.46;58.92
69145;BME280;56251;50.324;17.574;2023-02-17T01:26:16;102379.42;;;5.64;58.74
69145;BME280;56251;50.324;17.574;2023-02-17T01:27:17;102379.52;;;5.71;58.83
69145;BME280;56251;50.324;17.574;2023-02-17T01:29:22;102380.78;;;5.83;58.64
69145;BME280;56251;50.324;17.574;2023-02-17T01:30:23;102376.66;;;5.87;58.52
69145;BME280;56251;50.324;17.574;2023-02-17T01:32:28;102381.13;;;5.93;58.12
69145;BME280;56251;50.324;17.574;2023-02-17T01:33:29;102376.70;;;5.96;58.12
69145;BME280;56251;50.324;17.574;2023-02-17T01:35:34;102375.52;;;5.98;57.79
69145;BME280;56251;50.324;17.574;2023-02-17T01:36:35;102371.44;;;5.99;57.97
69145;BME280;56251;50.324;17.574;2023-02-17T01:38:40;102372.20;;;6.00;57.57
69145;BME280;56251;50.324;17.574;2023-02-17T01:39:42;102372.68;;;6.02;57.54
69145;BME280;56251;50.324;17.574;2023-02-17T01:41:47;102370.84;;;6.01;57.81
69145;BME280;56251;50.324;17.574;2023-02-17T01:42:49;102370.55;;;5.84;58.34
69145;BME280;56251;50.324;17.574;2023-02-17T01:45:59;102375.66;;;5.58;59.68
69145;BME280;56251;50.324;17.574;2023-02-17T01:48:33;102370.77;;;5.65;59.24
69145;BME280;56251;50.324;17.574;2023-02-17T01:51:38;102366.70;;;5.69;59.38
69145;BME280;56251;50.324;17.574;2023-02-17T01:52:32;102370.55;;;5.71;59.53
69145;BME280;56251;50.324;17.574;2023-02-17T01:54:46;102365.75;;;5.76;59.54
69145;BME280;56251;50.324;17.574;2023-02-17T01:55:39;102367.67;;;5.80;59.25
69145;BME280;56251;50.324;17.574;2023-02-17T01:57:54;102362.52;;;5.74;59.31
69145;BME280;56251;50.324;17.574;2023-02-17T01:58:52;102364.34;;;5.74;59.35
69145;BME280;56251;50.324;17.574;2023-02-17T02:01:02;102361.42;;;5.80;59.40
69145;BME280;56251;50.324;17.574;2023-02-17T02:01:56;102357.97;;;5.86;59.45
69145;BME280;56251;50.324;17.574;2023-02-17T02:04:09;102356.14;;;5.89;59.52
69145;BME280;56251;50.324;17.574;2023-02-17T02:05:02;102359.20;;;5.93;59.38
69145;BME280;56251;50.324;17.574;2023-02-17T02:07:17;102358.69;;;5.99;59.15
69145;BME280;56251;50.324;17.574;2023-02-17T02:08:10;102359.16;;;6.01;58.85
69145;BME280;56251;50.324;17.574;2023-02-17T02:10:23;102357.24;;;6.03;59.11
69145;BME280;56251;50.324;17.574;2023-02-17T02:11:16;102358.58;;;6.07;59.04
69145;BME280;56251;50.324;17.574;2023-02-17T02:13:29;102353.59;;;6.07;59.31
69145;BME280;56251;50.324;17.574;2023-02-17T02:14:22;102353.80;;;6.08;59.33
69145;BME280;56251;50.324;17.574;2023-02-17T02:16:53;102341.94;;;6.16;59.34
69145;BME280;56251;50.324;17.574;2023-02-17T02:17:54;102340.47;;;6.21;59.26
69145;BME280;56251;50.324;17.574;2023-02-17T02:23:53;102328.98;;;6.30;58.55
69145;BME280;56251;50.324;17.574;2023-02-17T02:24:25;102328.85;;;6.29;58.50
69145;BME280;56251;50.324;17.574;2023-02-17T02:27:55;102331.84;;;6.39;57.95
69145;BME280;56251;50.324;17.574;2023-02-17T02:30:27;102330.56;;;6.54;57.39
69145;BME280;56251;50.324;17.574;2023-02-17T02:34:39;102321.50;;;6.55;57.35
69145;BME280;56251;50.324;17.574;2023-02-17T02:36:59;102320.51;;;6.53;57.79
69145;BME280;56251;50.324;17.574;2023-02-17T02:37:52;102319.69;;;6.49;57.96
69145;BME280;56251;50.324;17.574;2023-02-17T02:40:07;102317.20;;;6.43;58.38
69145;BME280;56251;50.324;17.574;2023-02-17T02:41:02;102315.65;;;6.47;58.36
69145;BME280;56251;50.324;17.574;2023-02-17T02:43:14;102305.38;;;6.57;57.92
69145;BME280;56251;50.324;17.574;2023-02-17T02:44:07;102303.79;;;6.58;57.88
69145;BME280;56251;50.324;17.574;2023-02-17T02:46:20;102302.05;;;6.60;58.24
69145;BME280;56251;50.324;17.574;2023-02-17T02:49:32;102294.63;;;6.61;58.16
69145;BME280;56251;50.324;17.574;2023-02-17T02:51:15;102297.39;;;6.55;58.26
69145;BME280;56251;50.324;17.574;2023-02-17T02:57:38;102287.20;;;6.75;56.63
69145;BME280;56251;50.324;17.574;2023-02-17T02:59:36;102284.64;;;6.81;55.84
69145;BME280;56251;50.324;17.574;2023-02-17T03:00:47;102283.89;;;6.84;55.70
69145;BME280;56251;50.324;17.574;2023-02-17T03:03:07;102280.19;;;6.86;55.67
69145;BME280;56251;50.324;17.574;2023-02-17T03:07:45;102268.55;;;6.90;56.16
69145;BME280;56251;50.324;17.574;2023-02-17T03:09:26;102266.33;;;6.85;56.77
69145;BME280;56251;50.324;17.574;2023-02-17T03:10:52;102265.56;;;6.91;57.41
69145;BME280;56251;50.324;17.574;2023-02-17T03:12:34;102269.37;;;6.94;57.57
69145;BME280;56251;50.324;17.574;2023-02-17T03:14:04;102267.94;;;6.95;57.26
69145;BME280;56251;50.324;17.574;2023-02-17T03:15:46;102266.30;;;6.97;57.21
69145;BME280;56251;50.324;17.574;2023-02-17T03:17:07;102263.58;;;7.02;57.25
69145;BME280;56251;50.324;17.574;2023-02-17T03:18:52;102262.16;;;7.09;57.23
69145;BME280;56251;50.324;17.574;2023-02-17T03:20:13;102261.76;;;7.08;57.24
69145;BME280;56251;50.324;17.574;2023-02-17T03:22:08;102259.30;;;7.04;57.30
69145;BME280;56251;50.324;17.574;2023-02-17T03:23:20;102261.26;;;6.97;57.29
69145;BME280;56251;50.324;17.574;2023-02-17T03:25:15;102265.41;;;7.03;57.25
69145;BME280;56251;50.324;17.574;2023-02-17T03:26:26;102262.75;;;7.07;56.97
69145;BME280;56251;50.324;17.574;2023-02-17T03:28:21;102258.70;;;7.13;56.82
69145;BME280;56251;50.324;17.574;2023-02-17T03:29:32;102260.17;;;7.15;56.68
69145;BME280;56251;50.324;17.574;2023-02-17T03:31:27;102260.49;;;7.18;56.57
69145;BME280;56251;50.324;17.574;2023-02-17T03:32:39;102261.96;;;7.22;56.40
69145;BME280;56251;50.324;17.574;2023-02-17T03:34:34;102262.16;;;7.28;56.06
69145;BME280;56251;50.324;17.574;2023-02-17T03:35:45;102260.54;;;7.29;56.15
69145;BME280;56251;50.324;17.574;2023-02-17T03:37:40;102260.05;;;7.33;56.30
69145;BME280;56251;50.324;17.574;2023-02-17T03:38:52;102257.94;;;7.35;56.21
69145;BME280;56251;50.324;17.574;2023-02-17T03:40:46;102258.44;;;7.40;56.04
69145;BME280;56251;50.324;17.574;2023-02-17T03:41:58;102258.55;;;7.42;56.02
69145;BME280;56251;50.324;17.574;2023-02-17T03:43:53;102251.55;;;7.45;55.77
69145;BME280;56251;50.324;17.574;2023-02-17T03:45:04;102251.96;;;7.47;55.75
69145;BME280;56251;50.324;17.574;2023-02-17T03:46:59;102248.75;;;7.48;56.31
69145;BME280;56251;50.324;17.574;2023-02-17T03:48:10;102244.75;;;7.54;56.61
69145;BME280;56251;50.324;17.574;2023-02-17T03:50:06;102243.77;;;7.57;57.26
69145;BME280;56251;50.324;17.574;2023-02-17T03:51:21;102240.95;;;7.56;57.83
69145;BME280;56251;50.324;17.574;2023-02-17T03:53:12;102239.62;;;7.69;58.67
69145;BME280;56251;50.324;17.574;2023-02-17T03:54:31;102239.05;;;7.75;59.06
69145;BME280;56251;50.324;17.574;2023-02-17T03:56:19;102240.59;;;7.90;59.22
69145;BME280;56251;50.324;17.574;2023-02-17T03:57:37;102238.89;;;7.98;59.22
69145;BME280;56251;50.324;17.574;2023-02-17T03:59:25;102232.71;;;8.06;58.91
69145;BME280;56251;50.324;17.574;2023-02-17T04:00:43;102229.69;;;8.11;58.50
69145;BME280;56251;50.324;17.574;2023-02-17T04:02:31;102233.24;;;8.11;58.16
69145;BME280;56251;50.324;17.574;2023-02-17T04:03:49;102232.33;;;8.15;57.88
69145;BME280;56251;50.324;17.574;2023-02-17T04:05:37;102228.53;;;8.20;57.35
69145;BME280;56251;50.324;17.574;2023-02-17T04:06:56;102225.94;;;8.25;56.98
69145;BME280;56251;50.324;17.574;2023-02-17T04:08:43;102223.23;;;8.27;56.92
69145;BME280;56251;50.324;17.574;2023-02-17T04:10:02;102225.66;;;8.25;57.04
69145;BME280;56251;50.324;17.574;2023-02-17T04:11:50;102226.43;;;8.33;57.26
69145;BME280;56251;50.324;17.574;2023-02-17T04:13:09;102232.38;;;8.35;57.30
69145;BME280;56251;50.324;17.574;2023-02-17T04:14:56;102237.41;;;8.36;57.31
69145;BME280;56251;50.324;17.574;2023-02-17T04:16:15;102241.55;;;8.31;57.50
69145;BME280;56251;50.324;17.574;2023-02-17T04:18:02;102246.78;;;8.33;57.55
69145;BME280;56251;50.324;17.574;2023-02-17T04:19:21;102246.25;;;8.37;57.42
69145;BME280;56251;50.324;17.574;2023-02-17T04:21:08;102239.80;;;8.39;57.29
69145;BME280;56251;50.324;17.574;2023-02-17T04:22:27;102239.08;;;8.38;57.62
69145;BME280;56251;50.324;17.574;2023-02-17T04:24:15;102234.84;;;8.35;58.24
69145;BME280;56251;50.324;17.574;2023-02-17T04:25:34;102233.83;;;8.33;58.71
69145;BME280;56251;50.324;17.574;2023-02-17T04:27:21;102233.49;;;8.42;59.01
69145;BME280;56251;50.324;17.574;2023-02-17T04:28:41;102235.95;;;8.49;59.08
69145;BME280;56251;50.324;17.574;2023-02-17T04:30:27;102235.36;;;8.53;59.28
69145;BME280;56251;50.324;17.574;2023-02-17T04:31:47;102230.82;;;8.59;59.34
69145;BME280;56251;50.324;17.574;2023-02-17T04:33:33;102228.17;;;8.64;59.40
69145;BME280;56251;50.324;17.574;2023-02-17T04:34:53;102226.46;;;8.70;59.33
69145;BME280;56251;50.324;17.574;2023-02-17T04:36:40;102228.32;;;8.70;59.29
69145;BME280;56251;50.324;17.574;2023-02-17T04:37:59;102223.48;;;8.74;59.17
69145;BME280;56251;50.324;17.574;2023-02-17T04:39:46;102223.79;;;8.78;59.06
69145;BME280;56251;50.324;17.574;2023-02-17T04:41:05;102218.88;;;8.76;58.98
69145;BME280;56251;50.324;17.574;2023-02-17T04:42:52;102221.19;;;8.83;58.93
69145;BME280;56251;50.324;17.574;2023-02-17T04:44:12;102211.30;;;8.85;58.73
69145;BME280;56251;50.324;17.574;2023-02-17T04:45:58;102214.46;;;8.83;58.62
69145;BME280;56251;50.324;17.574;2023-02-17T04:47:18;102215.39;;;8.84;58.62
69145;BME280;56251;50.324;17.574;2023-02-17T04:49:04;102209.80;;;8.80;58.74
69145;BME280;56251;50.324;17.574;2023-02-17T04:50:24;102213.37;;;8.79;58.69
69145;BME280;56251;50.324;17.574;2023-02-17T04:52:10;102209.68;;;8.74;58.70
69145;BME280;56251;50.324;17.574;2023-02-17T04:53:30;102209.07;;;8.72;58.79
69145;BME280;56251;50.324;17.574;2023-02-17T04:55:16;102215.14;;;8.71;58.73
69145;BME280;56251;50.324;17.574;2023-02-17T04:56:36;102215.16;;;8.64;58.82
69145;BME280;56251;50.324;17.574;2023-02-17T04:58:23;102212.39;;;8.69;58.61
69145;BME280;56251;50.324;17.574;2023-02-17T04:59:42;102216.95;;;8.69;58.76
69145;BME280;56251;50.324;17.574;2023-02-17T05:01:29;102214.32;;;8.64;58.92
69145;BME280;56251;50.324;17.574;2023-02-17T05:02:48;102216.77;;;8.63;59.40
69145;BME280;56251;50.324;17.574;2023-02-17T05:04:35;102214.19;;;8.60;59.67
69145;BME280;56251;50.324;17.574;2023-02-17T05:05:54;102213.91;;;8.59;59.85
69145;BME280;56251;50.324;17.574;2023-02-17T05:07:41;102214.36;;;8.48;59.79
69145;BME280;56251;50.324;17.574;2023-02-17T05:09:01;102219.80;;;8.54;59.89
69145;BME280;56251;50.324;17.574;2023-02-17T05:10:51;102213.91;;;8.59;59.87
69145;BME280;56251;50.324;17.574;2023-02-17T05:12:10;102210.52;;;8.60;59.73
69145;BME280;56251;50.324;17.574;2023-02-17T05:13:57;102208.70;;;8.63;59.79
69145;BME280;56251;50.324;17.574;2023-02-17T05:15:16;102206.24;;;8.57;59.96
69145;BME280;56251;50.324;17.574;2023-02-17T05:17:04;102208.12;;;8.55;60.51
69145;BME280;56251;50.324;17.574;2023-02-17T05:18:22;102200.97;;;8.50;60.88
69145;BME280;56251;50.324;17.574;2023-02-17T05:20:10;102196.41;;;8.46;61.28
69145;BME280;56251;50.324;17.574;2023-02-17T05:21:28;102194.62;;;8.51;61.43
69145;BME280;56251;50.324;17.574;2023-02-17T05:23:16;102198.62;;;8.57;61.49
69145;BME280;56251;50.324;17.574;2023-02-17T05:24:34;102199.48;;;8.65;61.43
69145;BME280;56251;50.324;17.574;2023-02-17T05:26:23;102198.24;;;8.79;61.09
69145;BME280;56251;50.324;17.574;2023-02-17T05:27:41;102194.23;;;8.82;60.90
69145;BME280;56251;50.324;17.574;2023-02-17T05:29:29;102184.69;;;8.85;60.76
69145;BME280;56251;50.324;17.574;2023-02-17T05:30:48;102185.16;;;8.91;60.61
69145;BME280;56251;50.324;17.574;2023-02-17T05:32:35;102186.20;;;8.92;60.62
69145;BME280;56251;50.324;17.574;2023-02-17T05:33:54;102183.15;;;8.95;60.56
69145;BME280;56251;50.324;17.574;2023-02-17T05:35:41;102180.49;;;8.98;60.43
69145;BME280;56251;50.324;17.574;2023-02-17T05:37:00;102175.71;;;9.04;60.29
69145;BME280;56251;50.324;17.574;2023-02-17T05:38:48;102172.03;;;9.05;60.19
69145;BME280;56251;50.324;17.574;2023-02-17T05:40:07;102176.33;;;9.11;60.04
69145;BME280;56251;50.324;17.574;2023-02-17T05:41:56;102174.19;;;9.23;59.69
69145;BME280;56251;50.324;17.574;2023-02-17T05:43:14;102178.02;;;9.21;59.63
69145;BME280;56251;50.324;17.574;2023-02-17T05:45:02;102173.13;;;9.24;59.63
69145;BME280;56251;50.324;17.574;2023-02-17T05:46:20;102171.79;;;9.24;59.56
69145;BME280;56251;50.324;17.574;2023-02-17T05:48:09;102171.39;;;9.25;59.49
69145;BME280;56251;50.324;17.574;2023-02-17T05:49:27;102171.22;;;9.25;59.39
69145;BME280;56251;50.324;17.574;2023-02-17T05:51:15;102168.77;;;9.17;59.71
69145;BME280;56251;50.324;17.574;2023-02-17T05:52:33;102165.82;;;9.21;59.82
69145;BME280;56251;50.324;17.574;2023-02-17T05:54:24;102161.76;;;9.23;59.96
69145;BME280;56251;50.324;17.574;2023-02-17T05:55:39;102160.87;;;9.28;59.97
69145;BME280;56251;50.324;17.574;2023-02-17T05:57:35;102157.15;;;9.26;60.11
69145;BME280;56251;50.324;17.574;2023-02-17T05:58:45;102156.98;;;9.21;60.39
69145;BME280;56251;50.324;17.574;2023-02-17T06:00:41;102159.20;;;9.29;60.45
69145;BME280;56251;50.324;17.574;2023-02-17T06:01:52;102160.77;;;9.32;60.42
69145;BME280;56251;50.324;17.574;2023-02-17T06:03:47;102164.94;;;9.34;60.38
69145;BME280;56251;50.324;17.574;2023-02-17T06:04:58;102160.45;;;9.36;60.31
69145;BME280;56251;50.324;17.574;2023-02-17T06:06:53;102155.70;;;9.39;60.13
69145;BME280;56251;50.324;17.574;2023-02-17T06:08:04;102156.48;;;9.43;59.90
69145;BME280;56251;50.324;17.574;2023-02-17T06:09:59;102155.48;;;9.43;59.94
69145;BME280;56251;50.324;17.574;2023-02-17T06:11:10;102156.94;;;9.45;59.94
69145;BME280;56251;50.324;17.574;2023-02-17T06:13:06;102160.50;;;9.42;60.07
69145;BME280;56251;50.324;17.574;2023-02-17T06:14:16;102155.48;;;9.43;60.12
69145;BME280;56251;50.324;17.574;2023-02-17T06:16:12;102154.48;;;9.47;60.12
69145;BME280;56251;50.324;17.574;2023-02-17T06:17:22;102154.54;;;9.49;60.12
69145;BME280;56251;50.324;17.574;2023-02-17T06:19:18;102151.79;;;9.53;60.11
69145;BME280;56251;50.324;17.574;2023-02-17T06:20:28;102148.18;;;9.55;60.09
69145;BME280;56251;50.324;17.574;2023-02-17T06:22:24;102143.60;;;9.61;59.96
69145;BME280;56251;50.324;17.574;2023-02-17T06:23:34;102141.09;;;9.67;59.71
69145;BME280;56251;50.324;17.574;2023-02-17T06:25:30;102142.98;;;9.66;59.85
69145;BME280;56251;50.324;17.574;2023-02-17T06:26:40;102145.45;;;9.72;59.87
69145;BME280;56251;50.324;17.574;2023-02-17T06:28:36;102148.70;;;9.78;59.70
69145;BME280;56251;50.324;17.574;2023-02-17T06:29:46;102147.36;;;9.83;59.61
69145;BME280;56251;50.324;17.574;2023-02-17T06:31:42;102150.70;;;9.88;59.28
69145;BME280;56251;50.324;17.574;2023-02-17T06:32:52;102149.54;;;9.81;59.10
69145;BME280;56251;50.324;17.574;2023-02-17T06:34:49;102147.18;;;9.68;59.03
69145;BME280;56251;50.324;17.574;2023-02-17T06:35:58;102146.72;;;9.70;58.97
69145;BME280;56251;50.324;17.574;2023-02-17T06:37:55;102152.28;;;9.76;58.95
69145;BME280;56251;50.324;17.574;2023-02-17T06:39:04;102148.13;;;9.81;58.85
69145;BME280;56251;50.324;17.574;2023-02-17T06:41:01;102147.98;;;9.85;58.41
69145;BME280;56251;50.324;17.574;2023-02-17T06:42:10;102148.19;;;9.87;58.29
69145;BME280;56251;50.324;17.574;2023-02-17T06:44:07;102155.57;;;9.65;57.84
69145;BME280;56251;50.324;17.574;2023-02-17T06:45:17;102157.64;;;9.54;57.84
69145;BME280;56251;50.324;17.574;2023-02-17T06:47:13;102153.70;;;9.20;58.66
69145;BME280;56251;50.324;17.574;2023-02-17T06:48:23;102147.41;;;9.16;58.57
69145;BME280;56251;50.324;17.574;2023-02-17T06:50:19;102146.39;;;9.14;58.42
69145;BME280;56251;50.324;17.574;2023-02-17T06:51:29;102143.83;;;9.16;58.55
69145;BME280;56251;50.324;17.574;2023-02-17T06:53:26;102147.41;;;9.25;58.90
69145;BME280;56251;50.324;17.574;2023-02-17T06:54:35;102148.45;;;9.29;59.07
69145;BME280;56251;50.324;17.574;2023-02-17T06:56:32;102148.02;;;9.32;59.40
69145;BME280;56251;50.324;17.574;2023-02-17T06:57:41;102152.13;;;9.35;59.58
69145;BME280;56251;50.324;17.574;2023-02-17T06:59:38;102156.09;;;9.32;59.74
69145;BME280;56251;50.324;17.574;2023-02-17T07:00:47;102154.30;;;9.31;59.87
69145;BME280;56251;50.324;17.574;2023-02-17T07:02:44;102152.48;;;9.35;59.88
69145;BME280;56251;50.324;17.574;2023-02-17T07:03:54;102148.84;;;9.36;60.49
69145;BME280;56251;50.324;17.574;2023-02-17T07:05:51;102149.40;;;9.45;60.61
69145;BME280;56251;50.324;17.574;2023-02-17T07:07:00;102151.97;;;9.43;60.81
69145;BME280;56251;50.324;17.574;2023-02-17T07:09:00;102153.04;;;9.39;61.27
69145;BME280;56251;50.324;17.574;2023-02-17T07:10:07;102153.19;;;9.37;61.83
69145;BME280;56251;50.324;17.574;2023-02-17T07:12:07;102146.84;;;9.35;62.83
69145;BME280;56251;50.324;17.574;2023-02-17T07:13:13;102146.58;;;9.36;63.20
69145;BME280;56251;50.324;17.574;2023-02-17T07:15:13;102145.73;;;9.31;63.84
69145;BME280;56251;50.324;17.574;2023-02-17T07:16:19;102143.91;;;9.23;63.55
69145;BME280;56251;50.324;17.574;2023-02-17T07:18:19;102147.46;;;9.15;63.96
69145;BME280;56251;50.324;17.574;2023-02-17T07:19:25;102148.45;;;9.12;64.23
69145;BME280;56251;50.324;17.574;2023-02-17T07:21:25;102140.41;;;9.08;64.27
69145;BME280;56251;50.324;17.574;2023-02-17T07:22:31;102141.91;;;8.96;64.33
69145;BME280;56251;50.324;17.574;2023-02-17T07:24:31;102143.00;;;9.08;64.66
69145;BME280;56251;50.324;17.574;2023-02-17T07:25:37;102148.23;;;9.14;64.96
69145;BME280;56251;50.324;17.574;2023-02-17T07:27:38;102148.40;;;9.15;65.68
69145;BME280;56251;50.324;17.574;2023-02-17T07:28:43;102150.23;;;9.18;65.88
69145;BME280;56251;50.324;17.574;2023-02-17T07:30:44;102150.04;;;8.92;65.35
69145;BME280;56251;50.324;17.574;2023-02-17T07:31:50;102156.55;;;8.91;65.55
69145;BME280;56251;50.324;17.574;2023-02-17T07:33:50;102152.95;;;8.99;66.21
69145;BME280;56251;50.324;17.574;2023-02-17T07:34:56;102149.26;;;8.99;66.42
69145;BME280;56251;50.324;17.574;2023-02-17T07:36:56;102146.27;;;9.08;66.09
69145;BME280;56251;50.324;17.574;2023-02-17T07:38:02;102144.44;;;9.04;66.61
69145;BME280;56251;50.324;17.574;2023-02-17T07:40:03;102141.76;;;9.12;66.59
69145;BME280;56251;50.324;17.574;2023-02-17T07:41:13;102139.90;;;9.23;66.54
69145;BME280;56251;50.324;17.574;2023-02-17T07:43:09;102139.27;;;9.19;65.99
69145;BME280;56251;50.324;17.574;2023-02-17T07:44:16;102137.44;;;9.14;65.59
69145;BME280;56251;50.324;17.574;2023-02-17T07:46:16;102132.00;;;8.89;66.55
69145;BME280;56251;50.324;17.574;2023-02-17T07:47:22;102129.84;;;8.92;66.73
69145;BME280;56251;50.324;17.574;2023-02-17T07:49:22;102133.17;;;8.94;67.15
69145;BME280;56251;50.324;17.574;2023-02-17T07:50:28;102129.90;;;8.90;66.80
69145;BME280;56251;50.324;17.574;2023-02-17T07:52:28;102127.64;;;8.80;66.88
69145;BME280;56251;50.324;17.574;2023-02-17T07:53:35;102128.85;;;8.76;67.38
69145;BME280;56251;50.324;17.574;2023-02-17T07:55:34;102131.41;;;8.96;67.81
69145;BME280;56251;50.324;17.574;2023-02-17T07:56:41;102131.80;;;9.09;67.75
69145;BME280;56251;50.324;17.574;2023-02-17T07:58:42;102134.55;;;9.14;68.43
69145;BME280;56251;50.324;17.574;2023-02-17T07:59:47;102133.47;;;9.14;68.87
69145;BME280;56251;50.324;17.574;2023-02-17T08:01:48;102138.71;;;9.02;69.43
69145;BME280;56251;50.324;17.574;2023-02-17T08:02:53;102137.42;;;9.02;69.39
69145;BME280;56251;50.324;17.574;2023-02-17T08:05:01;102140.98;;;9.15;69.45
69145;BME280;56251;50.324;17.574;2023-02-17T08:05:59;102139.10;;;9.29;69.18
69145;BME280;56251;50.324;17.574;2023-02-17T08:08:07;102153.98;;;9.43;69.08
69145;BME280;56251;50.324;17.574;2023-02-17T08:09:05;102153.52;;;9.46;69.35
69145;BME280;56251;50.324;17.574;2023-02-17T08:11:51;102145.88;;;9.69;69.48
69145;BME280;56251;50.324;17.574;2023-02-17T08:12:49;102145.05;;;9.70;69.28
69145;BME280;56251;50.324;17.574;2023-02-17T08:15:35;102141.48;;;9.69;69.08
69145;BME280;56251;50.324;17.574;2023-02-17T08:16:15;102142.59;;;9.70;69.39
69145;BME280;56251;50.324;17.574;2023-02-17T08:18:41;102145.36;;;9.76;69.24
69145;BME280;56251;50.324;17.574;2023-02-17T08:19:21;102145.20;;;9.74;69.24
69145;BME280;56251;50.324;17.574;2023-02-17T08:21:48;102140.46;;;9.81;69.25
69145;BME280;56251;50.324;17.574;2023-02-17T08:22:27;102135.48;;;9.86;69.24
69145;BME280;56251;50.324;17.574;2023-02-17T08:24:55;102134.67;;;9.95;69.52
69145;BME280;56251;50.324;17.574;2023-02-17T08:25:34;102133.00;;;10.00;69.53
69145;BME280;56251;50.324;17.574;2023-02-17T08:28:02;102134.05;;;10.01;69.16
69145;BME280;56251;50.324;17.574;2023-02-17T08:28:41;102129.16;;;9.99;69.11
69145;BME280;56251;50.324;17.574;2023-02-17T08:31:20;102122.45;;;9.88;69.64
69145;BME280;56251;50.324;17.574;2023-02-17T08:31:50;102121.59;;;9.92;69.81